createdAt,value
2023-11-30T00:04:52.062Z,96978.41
2023-11-30T00:09:53.876Z,96974.66
2023-11-30T00:14:55.711Z,96987.28
2023-11-30T00:19:57.552Z,96986.22
2023-11-30T00:24:59.422Z,96981.78
2023-11-30T00:30:01.486Z,96983.41
2023-11-30T00:35:03.613Z,96986.63
2023-11-30T00:40:07.080Z,96979.63
2023-11-30T00:45:09.953Z,96979.50
2023-11-30T00:50:11.939Z,96988.91
2023-11-30T00:55:14.518Z,96994.00
2023-11-30T01:00:17.266Z,96992.13
2023-11-30T01:05:19.267Z,97002.88
2023-11-30T01:10:21.417Z,97008.81
2023-11-30T01:15:23.462Z,97002.09
2023-11-30T01:20:25.620Z,97010.41
2023-11-30T01:25:28.982Z,97008.41
2023-11-30T01:30:32.375Z,97003.97
2023-11-30T01:35:35.650Z,97006.66
2023-11-30T01:40:39.655Z,97013.38
2023-11-30T01:45:41.566Z,97016.88
2023-11-30T01:50:46.035Z,97011.75
2023-11-30T01:55:49.909Z,97004.22
2023-11-30T02:00:53.525Z,97008.53
2023-11-30T02:05:55.487Z,97018.75
2023-11-30T02:10:57.742Z,97008.00
2023-11-30T02:16:00.925Z,97000.19
2023-11-30T02:21:02.812Z,97002.34
2023-11-30T02:26:08.246Z,96997.50
2023-11-30T02:31:10.876Z,97005.03
2023-11-30T02:36:14.191Z,96991.59
2023-11-30T02:41:18.162Z,96987.44
2023-11-30T02:46:21.313Z,96978.97
2023-11-30T02:51:23.493Z,96983.00
2023-11-30T02:56:25.471Z,96971.16
2023-11-30T03:01:28.673Z,96980.31
2023-11-30T03:06:30.646Z,96989.56
2023-11-30T03:11:32.701Z,96981.91
2023-11-30T03:16:45.620Z,96973.44
2023-11-30T03:21:54.112Z,96977.63
2023-11-30T03:26:56.082Z,96977.34
2023-11-30T03:31:58.388Z,96973.97
2023-11-30T03:37:00.894Z,96978.41
2023-11-30T03:42:05.309Z,96980.31
2023-11-30T03:47:08.129Z,96974.38
2023-11-30T03:52:10.073Z,96966.06
2023-11-30T03:57:12.117Z,96969.53
2023-11-30T04:02:14.185Z,96971.16
2023-11-30T04:07:16.291Z,96970.88
2023-11-30T04:12:18.250Z,96970.63
2023-11-30T04:17:20.439Z,96955.97
2023-11-30T04:22:22.858Z,96955.16
2023-11-30T04:27:26.271Z,96956.63
2023-11-30T04:32:28.642Z,96955.56
2023-11-30T04:37:30.900Z,96958.53
2023-11-30T04:42:33.407Z,96962.81
2023-11-30T04:47:35.676Z,96954.63
2023-11-30T04:52:37.834Z,96965.78
2023-11-30T04:57:40.426Z,96966.31
2023-11-30T05:02:56.762Z,96970.75
2023-11-30T05:07:59.316Z,96970.63
2023-11-30T05:13:01.780Z,96966.31
2023-11-30T05:18:06.204Z,96967.41
2023-11-30T05:23:08.584Z,96960.53
2023-11-30T05:28:10.790Z,96968.72
2023-11-30T05:33:13.390Z,96959.84
2023-11-30T05:38:15.572Z,96963.97
2023-11-30T05:43:17.832Z,96963.53
2023-11-30T05:48:20.104Z,96963.50
2023-11-30T05:53:22.405Z,96972.75
2023-11-30T05:58:24.572Z,96969.91
2023-11-30T06:03:26.841Z,96978.75
2023-11-30T06:08:29.230Z,96970.84
2023-11-30T06:13:31.354Z,96976.69
2023-11-30T06:18:33.840Z,96967.25
2023-11-30T06:23:36.302Z,96967.09
2023-11-30T06:28:38.376Z,96965.41
2023-11-30T06:33:40.860Z,96969.41
2023-11-30T06:38:43.664Z,96974.19
2023-11-30T06:43:46.165Z,96980.09
2023-11-30T06:48:48.657Z,96976.91
2023-11-30T06:53:51.065Z,96968.41
2023-11-30T06:58:53.277Z,96969.63
2023-11-30T07:03:56.721Z,96968.81
2023-11-30T07:08:59.217Z,96965.72
2023-11-30T07:14:01.716Z,96985.69
2023-11-30T07:19:04.406Z,96987.00
2023-11-30T07:24:07.485Z,96988.97
2023-11-30T07:29:11.389Z,96987.50
2023-11-30T07:34:13.491Z,96992.47
2023-11-30T07:39:15.544Z,96992.91
2023-11-30T07:44:18.017Z,97003.53
2023-11-30T07:49:20.542Z,97018.19
2023-11-30T07:54:22.766Z,97019.44
2023-11-30T07:59:24.813Z,97019.19
2023-11-30T08:04:27.081Z,97009.41
2023-11-30T08:09:29.986Z,96996.97
2023-11-30T08:14:32.229Z,97002.63
2023-11-30T08:19:34.438Z,96995.44
2023-11-30T08:24:38.547Z,96996.41
2023-11-30T08:29:41.942Z,96985.69
2023-11-30T08:34:44.073Z,96987.88
2023-11-30T08:39:47.682Z,96991.81
2023-11-30T08:44:49.740Z,96996.13
2023-11-30T08:49:51.667Z,96989.69
2023-11-30T08:54:55.004Z,96987.53
2023-11-30T08:59:57.080Z,96984.72
2023-11-30T09:04:59.672Z,96985.25
2023-11-30T09:10:01.738Z,96977.34
2023-11-30T09:15:10.462Z,96975.19
2023-11-30T09:20:12.939Z,96976.81
2023-11-30T09:25:15.551Z,96972.78
2023-11-30T09:30:17.828Z,96980.28
2023-11-30T09:35:20.467Z,96972.78
2023-11-30T09:40:23.122Z,96969.41
2023-11-30T09:50:46.176Z,96962.53
2023-11-30T09:55:48.937Z,96967.34
2023-11-30T10:07:31.944Z,96943.13
2023-11-30T10:12:41.628Z,96949.81
2023-11-30T10:17:43.931Z,96937.41
2023-11-30T10:22:46.573Z,96930.91
2023-11-30T10:27:54.580Z,96927.94
2023-11-30T10:32:58.658Z,96932.75
2023-11-30T10:38:04.948Z,96933.44
2023-11-30T10:43:07.664Z,96926.69
2023-11-30T10:48:14.290Z,96921.72
2023-11-30T10:53:51.860Z,96920.69
2023-11-30T10:58:53.936Z,96908.03
2023-11-30T11:03:59.353Z,96908.84
2023-11-30T11:09:03.898Z,96901.44
2023-11-30T11:14:05.976Z,96907.38
2023-11-30T11:19:09.924Z,96894.84
2023-11-30T11:24:13.575Z,96899.97
2023-11-30T11:29:24.094Z,96897.41
2023-11-30T11:34:32.203Z,96892.31
2023-11-30T11:39:34.429Z,96884.78
2023-11-30T11:45:18.049Z,96881.03
2023-11-30T11:50:20.168Z,96868.94
2023-11-30T11:55:24.174Z,96868.03
2023-11-30T12:00:27.403Z,96867.72
2023-11-30T12:05:29.998Z,96868.56
2023-11-30T12:10:40.940Z,96860.47
2023-11-30T12:15:44.955Z,96852.22
2023-11-30T12:20:50.150Z,96853.03
2023-11-30T12:25:55.894Z,96839.44
2023-11-30T12:30:58.611Z,96844.84
2023-11-30T12:36:01.014Z,96856.97
2023-11-30T12:41:03.182Z,96848.34
2023-11-30T12:46:05.531Z,96846.44
2023-11-30T12:51:08.369Z,96845.38
2023-11-30T12:56:10.895Z,96842.66
2023-11-30T13:01:13.064Z,96838.72
2023-11-30T13:06:15.320Z,96838.69
2023-11-30T13:11:17.638Z,96841.63
2023-11-30T13:16:20.173Z,96840.53
2023-11-30T13:21:23.510Z,96829.91
2023-11-30T13:26:25.631Z,96823.34
2023-11-30T13:31:27.869Z,96830.56
2023-11-30T13:36:30.766Z,96823.28
2023-11-30T13:41:32.904Z,96826.50
2023-11-30T13:46:35.107Z,96816.56
2023-11-30T13:51:37.192Z,96816.31
2023-11-30T13:56:39.430Z,96816.09
2023-11-30T14:01:41.708Z,96808.19
2023-11-30T14:06:45.164Z,96802.31
2023-11-30T14:11:47.623Z,96805.44
2023-11-30T14:16:50.094Z,96801.56
2023-11-30T14:21:52.276Z,96810.47
2023-11-30T14:26:54.369Z,96805.91
2023-11-30T14:31:56.535Z,96805.53
2023-11-30T14:36:58.690Z,96807.97
2023-11-30T14:42:00.828Z,96805.31
2023-11-30T14:47:09.557Z,96802.81
2023-11-30T14:52:11.738Z,96796.50
2023-11-30T14:57:16.224Z,96796.13
2023-11-30T15:02:18.916Z,96805.66
2023-11-30T15:07:21.065Z,96807.41
2023-11-30T15:12:25.005Z,96802.31
2023-11-30T15:17:27.413Z,96806.59
2023-11-30T15:22:29.782Z,96810.09
2023-11-30T15:27:31.932Z,96809.97
2023-11-30T15:32:34.593Z,96809.81
2023-11-30T15:37:37.000Z,96818.81
2023-11-30T15:42:40.304Z,96816.00
2023-11-30T15:47:42.601Z,96820.81
2023-11-30T15:52:45.137Z,96817.59
2023-11-30T15:57:47.321Z,96819.78
2023-11-30T16:02:50.653Z,96828.66
2023-11-30T16:07:52.992Z,96833.75
2023-11-30T16:12:55.069Z,96828.38
2023-11-30T16:17:57.402Z,96825.53
2023-11-30T16:23:02.782Z,96827.81
2023-11-30T16:28:05.045Z,96832.53
2023-11-30T16:33:07.703Z,96824.84
2023-11-30T16:38:10.874Z,96817.31
2023-11-30T16:43:13.166Z,96821.78
2023-11-30T16:48:17.028Z,96820.81
2023-11-30T16:53:19.227Z,96825.66
2023-11-30T16:58:21.411Z,96818.41
2023-11-30T17:03:26.886Z,96811.97
2023-11-30T17:08:29.083Z,96809.16
2023-11-30T17:13:33.441Z,96806.88
2023-11-30T17:18:36.462Z,96804.47
2023-11-30T17:23:39.978Z,96803.38
2023-11-30T17:28:41.977Z,96806.47
2023-11-30T17:33:44.313Z,96806.06
2023-11-30T17:38:46.588Z,96803.34
2023-11-30T17:43:48.557Z,96791.53
2023-11-30T17:48:51.250Z,96791.66
2023-11-30T17:53:55.068Z,96781.59
2023-11-30T17:58:57.086Z,96800.66
2023-11-30T18:03:59.167Z,96799.44
2023-11-30T18:09:01.459Z,96802.00
2023-11-30T18:14:03.553Z,96799.97
2023-11-30T18:19:06.013Z,96819.19
2023-11-30T18:24:08.138Z,96804.66
2023-11-30T18:29:10.945Z,96810.44
2023-11-30T18:34:12.983Z,96810.28
2023-11-30T18:39:16.530Z,96810.44
2023-11-30T18:44:18.527Z,96793.34
2023-11-30T18:49:20.542Z,96794.16
2023-11-30T18:54:22.635Z,96786.91
2023-11-30T18:59:24.666Z,96780.63
2023-11-30T19:04:26.731Z,96776.72
2023-11-30T19:09:28.878Z,96781.84
2023-11-30T19:14:30.865Z,96768.13
2023-11-30T19:19:32.897Z,96772.84
2023-11-30T19:24:35.334Z,96767.88
2023-11-30T19:29:38.988Z,96767.88
2023-11-30T19:34:42.400Z,96769.63
2023-11-30T19:39:44.479Z,96770.84
2023-11-30T19:44:46.509Z,96762.94
2023-11-30T19:49:49.867Z,96766.19
2023-11-30T19:54:52.204Z,96768.75
2023-11-30T19:59:54.400Z,96773.75
2023-11-30T20:04:57.068Z,96765.56
2023-11-30T20:09:59.162Z,96761.41
2023-11-30T20:15:01.281Z,96766.50
2023-11-30T20:20:03.875Z,96770.00
2023-11-30T20:25:07.587Z,96779.53
2023-11-30T20:30:10.767Z,96780.63
2023-11-30T20:35:13.009Z,96771.63
2023-11-30T20:40:15.169Z,96779.41
2023-11-30T20:45:17.274Z,96776.88
2023-11-30T20:50:19.410Z,96777.41
2023-11-30T20:55:23.213Z,96785.59
2023-11-30T21:00:25.321Z,96791.09
2023-11-30T21:05:27.947Z,96788.00
2023-11-30T21:10:30.147Z,96780.72
2023-11-30T21:15:32.282Z,96777.91
2023-11-30T21:20:35.244Z,96779.50
2023-11-30T21:25:37.332Z,96774.53
2023-11-30T21:30:41.359Z,96784.88
2023-11-30T21:35:43.441Z,96795.25
2023-11-30T21:40:46.653Z,96793.50
2023-11-30T21:45:48.812Z,96791.59
2023-11-30T21:50:51.095Z,96794.56
2023-11-30T21:55:53.047Z,96784.63
2023-11-30T22:00:55.234Z,96788.81
2023-11-30T22:05:58.511Z,96786.28
2023-11-30T22:11:00.534Z,96792.06
2023-11-30T22:16:07.096Z,96804.16
2023-11-30T22:21:14.203Z,96811.53
2023-11-30T22:26:16.704Z,96819.59
2023-11-30T22:31:18.798Z,96814.22
2023-11-30T22:36:20.943Z,96808.31
2023-11-30T22:41:23.045Z,96811.66
2023-11-30T22:46:26.716Z,96828.31
2023-11-30T22:51:29.035Z,96834.34
2023-11-30T22:56:31.265Z,96833.81
2023-11-30T23:01:33.593Z,96825.75
2023-11-30T23:06:36.042Z,96824.00
2023-11-30T23:11:38.177Z,96828.16
2023-11-30T23:16:40.357Z,96830.03
2023-11-30T23:21:42.486Z,96829.22
2023-11-30T23:26:44.460Z,96831.25
2023-11-30T23:31:46.594Z,96817.69
2023-11-30T23:36:48.862Z,96833.00
2023-11-30T23:41:51.138Z,96821.72
2023-11-30T23:46:53.301Z,96823.19
2023-11-30T23:51:55.400Z,96821.56
2023-11-30T23:56:57.489Z,96824.13
